Time;durP1;ratioP1;P1;durP2;ratioP2;P2;SDS_P1;SDS_P2;PMS_P1;PMS_P2;Temp;Humidity;BMP_temperature;BMP_pressure;BME280_temperature;BME280_humidity;BME280_pressure;Samples;Min_cycle;Max_cycle;Signal;HPM_P1;HPM_P2
2023/06/21 00:02:50;;;;;;;3.17;2.80;;;;;;;21.71;58.98;96489.25;10360883;28;20129;-31
2023/06/21 00:07:53;;;;;;;4.93;3.47;;;;;;;21.68;59.23;96503.75;10367153;28;20287;-31
2023/06/21 00:12:53;;;;;;;4.50;4.10;;;;;;;21.65;59.29;96504.63;10367462;28;20048;-31
2023/06/21 00:17:54;;;;;;;5.95;3.47;;;;;;;21.63;58.96;96508.06;10376115;28;20048;-31
2023/06/21 00:22:56;;;;;;;6.20;3.90;;;;;;;21.61;58.85;96512.31;10374530;28;20029;-31
2023/06/21 00:27:56;;;;;;;6.93;4.45;;;;;;;21.57;58.51;96524.25;10361988;28;20041;-31
2023/06/21 00:33:00;;;;;;;3.47;3.13;;;;;;;21.57;59.04;96526.81;10351573;28;20460;-31
2023/06/21 00:38:00;;;;;;;4.72;3.67;;;;;;;21.79;59.86;96535.84;10341478;28;20457;-31
2023/06/21 00:43:00;;;;;;;3.53;3.03;;;;;;;21.89;58.78;96537.38;10351936;28;20087;-32
2023/06/21 00:48:01;;;;;;;4.27;3.63;;;;;;;21.78;59.35;96551.16;10367052;28;20053;-32
2023/06/21 00:53:01;;;;;;;5.20;2.83;;;;;;;21.71;59.33;96555.50;10355510;28;20084;-31
2023/06/21 00:58:02;;;;;;;6.97;4.50;;;;;;;21.66;58.92;96572.56;10381504;28;20048;-31
2023/06/21 01:03:02;;;;;;;5.22;4.10;;;;;;;21.60;58.59;96570.09;10360231;28;20295;-31
2023/06/21 01:08:12;;;;;;;3.80;2.90;;;;;;;21.58;58.58;96582.00;10349297;28;20042;-31
2023/06/21 01:13:31;;;;;;;5.47;3.38;;;;;;;21.57;58.35;96593.03;10348407;28;20033;-31
2023/06/21 01:18:32;;;;;;;4.75;2.97;;;;;;;21.57;58.65;96595.59;10351053;28;20034;-31
2023/06/21 01:23:50;;;;;;;3.72;3.35;;;;;;;21.71;59.54;96606.47;10357450;28;20030;-31
2023/06/21 01:29:26;;;;;;;3.53;2.83;;;;;;;21.88;58.93;96601.13;10349823;28;20042;-31
2023/06/21 01:34:28;;;;;;;4.07;2.92;;;;;;;21.78;59.09;96628.47;10351143;28;20038;-32
2023/06/21 01:39:29;;;;;;;3.58;3.13;;;;;;;21.67;58.74;96632.03;10343765;28;20030;-31
2023/06/21 01:44:29;;;;;;;3.60;3.07;;;;;;;21.57;58.36;96644.00;10363773;28;20037;-32
2023/06/21 01:49:30;;;;;;;3.30;3.00;;;;;;;21.59;58.59;96647.38;10355439;28;20820;-31
2023/06/21 01:54:34;;;;;;;4.15;2.90;;;;;;;21.57;58.28;96636.34;10381856;28;20030;-31
2023/06/21 01:59:38;;;;;;;4.63;3.40;;;;;;;21.59;58.48;96637.19;10362786;28;20040;-32
2023/06/21 02:04:39;;;;;;;4.53;4.13;;;;;;;21.53;58.40;96646.59;10356568;28;20030;-32
2023/06/21 02:09:42;;;;;;;3.30;3.00;;;;;;;21.60;59.90;96640.56;10373131;28;20494;-32
2023/06/21 02:14:43;;;;;;;3.63;3.25;;;;;;;21.81;58.97;96647.97;10361498;28;20132;-31
2023/06/21 02:19:44;;;;;;;4.40;2.58;;;;;;;21.87;58.36;96643.63;10355441;28;20128;-31
2023/06/21 02:24:44;;;;;;;3.72;3.33;;;;;;;21.75;58.81;96637.84;10371457;28;20061;-31
2023/06/21 02:29:45;;;;;;;4.75;3.65;;;;;;;21.67;58.37;96639.66;10372370;28;20037;-31
2023/06/21 02:34:45;;;;;;;4.97;3.13;;;;;;;21.62;58.19;96641.38;10387233;28;20037;-32
2023/06/21 02:39:46;;;;;;;3.70;3.00;;;;;;;21.59;58.30;96636.34;10372069;28;20034;-32
2023/06/21 02:44:46;;;;;;;5.03;4.13;;;;;;;21.59;58.13;96657.59;10353494;28;20036;-31
2023/06/21 02:49:46;;;;;;;6.47;4.73;;;;;;;21.57;58.29;96687.31;10369520;28;20038;-31
2023/06/21 02:54:47;;;;;;;5.97;3.87;;;;;;;21.55;58.10;96694.13;10376125;28;20103;-31
2023/06/21 02:59:48;;;;;;;5.80;4.80;;;;;;;21.73;61.15;96711.75;10352516;28;20037;-32
2023/06/21 03:04:49;;;;;;;4.32;3.90;;;;;;;21.87;60.61;96715.00;10367400;28;20050;-32
2023/06/21 03:09:49;;;;;;;4.37;3.50;;;;;;;21.81;59.95;96730.34;10369154;28;20021;-32
2023/06/21 03:14:50;;;;;;;6.73;5.10;;;;;;;21.74;59.58;96702.44;10352052;28;20037;-31
2023/06/21 03:19:50;;;;;;;11.25;5.90;;;;;;;21.67;58.81;96724.59;10385105;28;20044;-31
2023/06/21 03:24:51;;;;;;;9.77;6.70;;;;;;;21.73;61.56;96732.16;10352134;28;20022;-31
2023/06/21 03:29:51;;;;;;;8.70;6.22;;;;;;;21.65;58.58;96736.50;10351291;28;20034;-31
2023/06/21 03:34:52;;;;;;;7.00;5.60;;;;;;;21.65;58.55;96753.50;10367746;28;20091;-31
2023/06/21 03:39:53;;;;;;;10.27;6.38;;;;;;;21.60;58.59;96745.88;10370194;28;20030;-30
2023/06/21 03:44:53;;;;;;;12.88;7.30;;;;;;;21.60;59.73;96750.13;10341296;28;20053;-31
2023/06/21 03:49:57;;;;;;;7.70;6.18;;;;;;;21.85;61.53;96751.56;10340379;28;20060;-31
2023/06/21 03:54:58;;;;;;;11.10;7.50;;;;;;;22.08;63.40;96758.03;10367962;28;20061;-29
2023/06/21 03:59:59;;;;;;;13.53;8.70;;;;;;;22.03;63.12;96767.47;10373453;28;20061;-31
2023/06/21 04:05:00;;;;;;;14.82;9.35;;;;;;;21.97;63.25;96762.44;10344603;28;20409;-31
2023/06/21 04:10:00;;;;;;;13.30;8.07;;;;;;;21.92;63.57;96763.38;10359164;28;20169;-32
2023/06/21 04:15:04;;;;;;;10.40;7.85;;;;;;;21.88;63.58;96742.16;10349653;28;20350;-31
2023/06/21 04:20:12;;;;;;;11.52;7.50;;;;;;;21.87;63.76;96737.94;10346938;28;20091;-32
2023/06/21 04:25:12;;;;;;;15.07;8.52;;;;;;;21.85;63.69;96742.22;10354308;28;20429;-31
2023/06/21 04:30:13;;;;;;;10.23;7.18;;;;;;;21.91;64.01;96747.22;10367109;28;20045;-31
2023/06/21 04:35:17;;;;;;;15.85;7.50;;;;;;;21.86;64.31;96737.94;10361428;28;20026;-34
2023/06/21 04:40:18;;;;;;;10.75;7.40;;;;;;;21.89;64.46;96727.72;10337996;28;20038;-31
2023/06/21 04:45:19;;;;;;;10.95;7.00;;;;;;;21.91;64.58;96729.38;10361861;28;20459;-32
2023/06/21 04:50:20;;;;;;;9.07;6.63;;;;;;;21.76;63.02;96732.13;10362287;28;20037;-30
2023/06/21 04:55:21;;;;;;;7.70;6.28;;;;;;;21.65;61.89;96733.94;10359031;28;20442;-30
2023/06/21 05:00:21;;;;;;;9.38;5.50;;;;;;;21.67;61.81;96729.72;10331812;28;20057;-31
2023/06/21 05:05:22;;;;;;;8.73;5.80;;;;;;;21.61;60.65;96711.03;10359583;28;20561;-31
2023/06/21 05:10:22;;;;;;;11.15;6.22;;;;;;;21.54;60.22;96730.66;10366554;28;20450;-30
2023/06/21 05:15:23;;;;;;;9.40;4.40;;;;;;;21.55;59.85;96711.97;10349384;28;20085;-40
2023/06/21 05:20:23;;;;;;;8.23;5.20;;;;;;;21.56;59.83;96726.38;10344352;28;20037;-30
2023/06/21 05:25:23;;;;;;;9.30;4.57;;;;;;;21.74;60.63;96731.28;10361615;28;20029;-32
2023/06/21 05:30:24;;;;;;;15.40;6.07;;;;;;;21.83;61.80;96733.75;10368511;28;20295;-30
2023/06/21 05:35:24;;;;;;;5.73;5.00;;;;;;;21.74;61.57;96745.75;10362656;28;20026;-30
2023/06/21 05:40:24;;;;;;;8.23;4.97;;;;;;;21.64;61.03;96739.88;10374731;28;20085;-30
2023/06/21 05:45:25;;;;;;;7.00;4.33;;;;;;;21.61;59.94;96742.47;10349482;28;20030;-31
2023/06/21 05:50:30;;;;;;;9.57;4.70;;;;;;;21.57;59.72;96756.09;10347775;28;20033;-30
2023/06/21 05:55:30;;;;;;;7.13;4.72;;;;;;;21.57;59.56;96755.28;10351993;28;20516;-31
2023/06/21 06:00:31;;;;;;;8.30;5.33;;;;;;;21.55;59.32;96752.72;10357357;28;20041;-31
2023/06/21 06:05:31;;;;;;;8.73;4.85;;;;;;;21.53;59.61;96741.72;10356947;28;20026;-30
2023/06/21 06:10:31;;;;;;;8.30;5.07;;;;;;;21.61;61.25;96783.25;10357241;28;20040;-31
2023/06/21 06:15:32;;;;;;;5.57;4.70;;;;;;;21.80;59.76;96786.47;10367702;28;20030;-30
2023/06/21 06:20:32;;;;;;;6.33;3.80;;;;;;;21.83;59.42;96786.41;10365589;28;20033;-31
2023/06/21 06:25:33;;;;;;;4.83;4.10;;;;;;;21.70;60.13;96783.16;10348655;28;20037;-31
2023/06/21 06:30:33;;;;;;;6.03;4.35;;;;;;;21.62;59.14;96773.88;10360650;28;20030;-31
2023/06/21 06:35:33;;;;;;;4.75;3.85;;;;;;;21.58;59.08;96762.06;10349090;28;20030;-31
2023/06/21 06:40:34;;;;;;;4.40;3.60;;;;;;;21.54;59.14;96761.25;10388462;28;20521;-31
2023/06/21 06:45:34;;;;;;;4.25;3.75;;;;;;;21.52;59.09;96769.75;10350692;28;20026;-31
2023/06/21 06:50:38;;;;;;;4.40;4.00;;;;;;;21.54;58.93;96807.09;10340004;28;20501;-31
2023/06/21 06:55:39;;;;;;;4.15;3.75;;;;;;;21.56;58.83;96894.53;10379530;28;20374;-30
2023/06/21 07:00:39;;;;;;;5.78;4.38;;;;;;;21.71;60.29;96968.34;10360146;28;20034;-30
2023/06/21 07:05:44;;;;;;;4.17;3.77;;;;;;;21.83;59.87;96985.25;10348674;28;20037;-30
2023/06/21 07:10:44;;;;;;;3.92;3.53;;;;;;;21.77;59.66;96998.03;10358066;28;20034;-30
2023/06/21 07:15:45;;;;;;;3.50;3.20;;;;;;;21.68;59.35;97027.00;10358463;28;20041;-30
2023/06/21 07:20:45;;;;;;;4.27;3.23;;;;;;;21.61;59.02;97089.03;10359723;28;20036;-30
2023/06/21 07:25:45;;;;;;;4.20;3.80;;;;;;;21.58;58.76;97052.53;10364684;28;20280;-30
2023/06/21 07:30:46;;;;;;;3.78;3.25;;;;;;;21.51;58.85;96965.09;10354879;28;20026;-35
2023/06/21 07:35:49;;;;;;;3.60;3.30;;;;;;;21.51;58.91;96998.22;10345375;28;20410;-30
2023/06/21 07:40:49;;;;;;;5.43;3.72;;;;;;;21.48;58.65;96977.84;10341429;28;20045;-31
2023/06/21 07:45:50;;;;;;;4.00;2.97;;;;;;;21.49;59.44;96869.97;10359390;28;20382;-31
2023/06/21 07:50:50;;;;;;;3.60;3.30;;;;;;;21.73;59.18;96805.22;10363555;28;20325;-31
2023/06/21 07:55:51;;;;;;;4.03;3.30;;;;;;;21.79;58.49;96787.31;10341369;28;20493;-30
2023/06/21 08:00:51;;;;;;;3.70;3.20;;;;;;;21.68;59.10;96759.41;10339188;28;20018;-31
2023/06/21 08:05:51;;;;;;;3.03;2.73;;;;;;;21.60;58.58;96750.13;10342720;28;20041;-31
2023/06/21 08:10:52;;;;;;;3.57;3.27;;;;;;;21.57;58.34;96781.56;10342771;28;20030;-30
2023/06/21 08:15:52;;;;;;;3.30;3.00;;;;;;;21.54;58.52;96766.34;10359949;28;20029;-30
2023/06/21 08:20:53;;;;;;;3.27;2.97;;;;;;;21.50;58.42;96767.25;10359573;28;20030;-31
2023/06/21 08:25:53;;;;;;;3.17;2.83;;;;;;;21.48;58.22;96758.75;10354161;28;20541;-30
2023/06/21 08:30:54;;;;;;;2.70;2.50;;;;;;;21.49;58.38;96777.44;10368250;28;20061;-30
2023/06/21 08:35:54;;;;;;;3.97;3.03;;;;;;;21.61;59.24;96798.53;10350794;28;20360;-30
2023/06/21 08:40:59;;;;;;;3.30;3.00;;;;;;;21.80;59.14;96815.31;10358262;28;20030;-30
2023/06/21 08:46:05;;;;;;;3.97;2.92;;;;;;;21.81;58.44;96839.94;10344857;28;20049;-31
2023/06/21 08:51:05;;;;;;;3.53;2.92;;;;;;;21.68;58.88;96856.25;10361530;28;20042;-32
2023/06/21 08:56:09;;;;;;;3.45;3.15;;;;;;;21.63;58.45;96860.50;10353176;28;20054;-31
2023/06/21 09:01:11;;;;;;;3.10;2.53;;;;;;;21.57;58.44;96883.50;10337427;28;20041;-31
2023/06/21 09:06:16;;;;;;;3.00;2.70;;;;;;;21.55;58.26;96887.75;10361283;28;20025;-30
2023/06/21 09:11:17;;;;;;;2.53;2.33;;;;;;;21.53;58.24;96893.72;10350175;28;20469;-31
2023/06/21 09:16:19;;;;;;;2.42;2.22;;;;;;;21.51;58.20;96892.91;10329052;28;20501;-31
2023/06/21 09:21:20;;;;;;;2.70;2.50;;;;;;;21.49;58.03;96900.56;10342528;28;20069;-31
2023/06/21 09:26:20;;;;;;;3.80;3.50;;;;;;;21.68;59.23;96911.47;10368843;28;20037;-31
2023/06/21 09:31:21;;;;;;;2.83;2.50;;;;;;;21.82;58.71;96912.19;10365546;28;20057;-31
2023/06/21 09:36:21;;;;;;;3.10;2.80;;;;;;;21.76;59.08;96925.84;10332041;28;20035;-31
2023/06/21 09:41:22;;;;;;;3.13;2.50;;;;;;;21.66;58.80;96914.00;10331820;28;20312;-31
2023/06/21 09:46:22;;;;;;;4.75;2.65;;;;;;;21.63;58.53;96908.91;10362919;28;20037;-30
2023/06/21 09:51:23;;;;;;;3.03;2.73;;;;;;;21.59;58.43;96916.59;10342433;28;20044;-30
2023/06/21 09:56:24;;;;;;;4.05;3.08;;;;;;;21.56;58.22;96912.38;10338198;28;20039;-31
2023/06/21 10:01:34;;;;;;;3.35;2.80;;;;;;;21.55;58.26;96920.88;10361849;28;20042;-30
2023/06/21 10:06:35;;;;;;;2.28;2.08;;;;;;;21.54;58.17;96929.41;10341322;28;20058;-31
2023/06/21 10:11:37;;;;;;;3.00;2.47;;;;;;;21.56;59.46;96930.22;10357578;28;20503;-31
2023/06/21 10:16:38;;;;;;;2.70;2.50;;;;;;;21.77;59.19;96932.63;10344690;28;20041;-30
2023/06/21 10:21:39;;;;;;;2.47;2.28;;;;;;;21.85;58.33;96933.38;10353461;28;20042;-30
2023/06/21 10:26:42;;;;;;;2.97;2.67;;;;;;;21.74;59.12;96927.53;10349430;28;20038;-31
2023/06/21 10:31:44;;;;;;;3.70;2.58;;;;;;;21.67;58.65;96925.06;10352244;28;20521;-30
2023/06/21 10:36:48;;;;;;;3.22;2.80;;;;;;;21.61;58.47;96915.75;10370020;28;20049;-31
2023/06/21 10:41:49;;;;;;;3.13;2.83;;;;;;;21.57;58.28;96906.41;10348019;28;20038;-31
2023/06/21 10:46:50;;;;;;;3.22;2.92;;;;;;;21.57;58.34;96908.97;10367180;28;20684;-31
2023/06/21 10:51:54;;;;;;;3.20;2.90;;;;;;;21.56;58.13;96917.47;10366284;28;20121;-31
2023/06/21 10:56:54;;;;;;;2.70;2.50;;;;;;;21.51;58.50;96903.09;10363401;28;20041;-30
2023/06/21 11:01:54;;;;;;;2.80;2.55;;;;;;;21.64;60.00;96905.50;10353144;28;20498;-30
2023/06/21 11:07:00;;;;;;;2.50;2.30;;;;;;;21.82;59.28;96899.44;10351308;28;20033;-30
2023/06/21 11:12:05;;;;;;;2.58;2.38;;;;;;;21.82;58.67;96902.81;10379006;28;20045;-30
2023/06/21 11:17:12;;;;;;;2.90;2.70;;;;;;;21.69;59.03;96911.47;10345340;28;20049;-31
2023/06/21 11:22:17;;;;;;;2.30;2.10;;;;;;;21.65;58.54;96904.69;10353655;28;20033;-31
2023/06/21 11:27:18;;;;;;;2.67;2.47;;;;;;;21.60;58.33;96903.88;10338542;28;20093;-31
2023/06/21 11:32:18;;;;;;;3.30;2.90;;;;;;;21.60;58.56;96908.09;10360291;28;20518;-31
2023/06/21 11:37:47;;;;;;;2.80;2.45;;;;;;;21.57;58.30;96906.41;10335771;28;20104;-32
2023/06/21 11:42:49;;;;;;;2.83;2.50;;;;;;;21.57;58.78;96893.69;10368834;28;20387;-31
2023/06/21 11:47:59;;;;;;;4.63;4.13;;;;;;;21.56;59.98;96892.00;10354214;28;20027;-31
2023/06/21 11:53:23;;;;;;;6.38;3.42;;;;;;;21.77;59.71;96885.88;10336584;28;20065;-31
2023/06/21 11:58:25;;;;;;;2.50;2.30;;;;;;;21.88;58.87;96884.09;10343012;28;20036;-30
2023/06/21 12:03:25;;;;;;;4.75;2.35;;;;;;;21.76;59.33;96879.97;10347105;28;20552;-31
2023/06/21 12:08:27;;;;;;;4.57;3.27;;;;;;;21.68;59.37;96881.75;10378510;28;20091;-32
2023/06/21 12:13:29;;;;;;;6.32;3.40;;;;;;;21.67;59.63;96874.09;10366263;28;20827;-31
2023/06/21 12:18:31;;;;;;;6.03;3.60;;;;;;;21.63;58.99;96898.72;10349957;28;20048;-31
2023/06/21 12:23:32;;;;;;;5.95;2.78;;;;;;;21.63;59.46;96896.19;10355784;28;20038;-31
2023/06/21 12:28:34;;;;;;;9.68;3.70;;;;;;;21.64;59.51;96885.13;10351746;28;20049;-31
2023/06/21 12:33:36;;;;;;;5.13;3.85;;;;;;;21.61;59.01;96890.25;10357520;28;20465;-31
2023/06/21 12:38:37;;;;;;;10.20;4.70;;;;;;;21.67;60.30;96885.16;10356683;28;20038;-31
2023/06/21 12:43:41;;;;;;;7.87;3.00;;;;;;;21.87;59.99;96878.13;10364167;28;20034;-31
2023/06/21 12:48:53;;;;;;;5.55;2.47;;;;;;;21.88;59.83;96884.91;10352341;28;20038;-31
2023/06/21 12:54:00;;;;;;;3.92;2.45;;;;;;;21.74;58.89;96884.19;10324527;28;20041;-32
2023/06/21 12:59:01;;;;;;;5.88;2.40;;;;;;;21.67;59.82;96877.50;10341647;28;20034;-31
2023/06/21 13:04:06;;;;;;;4.50;2.53;;;;;;;21.67;59.67;96889.38;10342825;28;20117;-31
2023/06/21 13:09:08;;;;;;;4.32;2.40;;;;;;;21.64;59.54;96887.69;10383634;28;20033;-30
2023/06/21 13:14:08;;;;;;;4.05;2.38;;;;;;;21.64;59.33;96885.13;10357746;28;20049;-32
2023/06/21 13:19:09;;;;;;;6.75;2.55;;;;;;;21.63;59.14;96898.72;10351594;28;20037;-31
2023/06/21 13:24:09;;;;;;;4.33;1.97;;;;;;;21.63;59.26;96891.09;10350999;28;20104;-31
2023/06/21 13:29:09;;;;;;;6.27;2.70;;;;;;;21.77;60.27;96890.97;10358072;28;20433;-31
2023/06/21 13:34:10;;;;;;;2.93;2.03;;;;;;;21.92;59.94;96881.50;10358244;28;20439;-32
2023/06/21 13:39:10;;;;;;;3.53;2.17;;;;;;;21.89;59.38;96880.66;10362468;28;20405;-31
2023/06/21 13:44:10;;;;;;;2.77;2.33;;;;;;;21.75;58.73;96877.41;10367025;28;20064;-31
2023/06/21 13:49:11;;;;;;;3.40;2.60;;;;;;;21.69;58.81;96882.56;10373593;28;20034;-31
2023/06/21 13:54:11;;;;;;;3.67;2.10;;;;;;;21.64;58.81;96863.91;10358417;28;20038;-31
2023/06/21 13:59:13;;;;;;;2.73;2.33;;;;;;;21.65;59.13;96871.56;10371662;28;20045;-31
2023/06/21 14:04:13;;;;;;;2.58;2.38;;;;;;;21.64;59.43;96874.94;10356518;28;20034;-31
2023/06/21 14:09:14;;;;;;;4.93;3.13;;;;;;;21.67;59.68;96880.06;10366199;28;20033;-31
2023/06/21 14:14:14;;;;;;;4.20;2.63;;;;;;;21.65;59.55;96874.09;10365934;28;20030;-31
2023/06/21 14:19:15;;;;;;;3.57;2.47;;;;;;;21.84;60.25;96873.06;10347969;28;20304;-31
2023/06/21 14:24:15;;;;;;;2.20;2.00;;;;;;;21.95;59.50;96876.34;10364165;28;20044;-33
2023/06/21 14:29:15;;;;;;;3.13;2.40;;;;;;;21.82;59.40;96877.31;10346873;28;20088;-31
2023/06/21 14:34:16;;;;;;;4.03;2.40;;;;;;;21.73;59.03;96879.13;10341118;28;20805;-32
2023/06/21 14:39:16;;;;;;;2.72;2.08;;;;;;;21.67;59.22;96880.06;10350134;28;20583;-32
2023/06/21 14:44:17;;;;;;;2.93;2.50;;;;;;;21.67;59.40;96900.44;10378251;28;20021;-31
2023/06/21 14:49:17;;;;;;;4.07;2.38;;;;;;;21.65;59.29;96888.56;10354474;28;20044;-31
2023/06/21 14:54:23;;;;;;;2.47;2.00;;;;;;;21.64;59.44;96874.94;10363765;28;20030;-32
2023/06/21 14:59:25;;;;;;;3.13;2.30;;;;;;;21.63;59.10;96852.03;10347440;28;20109;-31
2023/06/21 15:04:25;;;;;;;4.30;2.35;;;;;;;21.72;60.31;96857.91;10388053;28;20037;-30
2023/06/21 15:09:26;;;;;;;3.27;2.33;;;;;;;21.91;60.30;96848.34;10365698;28;20037;-32
2023/06/21 15:14:26;;;;;;;2.13;1.80;;;;;;;21.93;59.63;96861.91;10389200;28;20675;-31
2023/06/21 15:19:26;;;;;;;2.70;1.90;;;;;;;21.81;58.99;96873.09;10341575;28;20085;-32
2023/06/21 15:24:27;;;;;;;2.50;2.30;;;;;;;21.73;58.94;96869.78;10354646;28;20379;-32
2023/06/21 15:29:27;;;;;;;2.20;2.00;;;;;;;21.67;59.41;96874.97;10361680;28;20285;-31
2023/06/21 15:34:27;;;;;;;3.37;2.07;;;;;;;21.65;59.55;96901.31;10344276;28;20042;-32
2023/06/21 15:39:30;;;;;;;3.40;2.20;;;;;;;21.65;59.32;96896.22;10355827;28;20046;-31
2023/06/21 15:44:30;;;;;;;2.55;2.05;;;;;;;21.62;59.61;96894.50;10356831;28;20030;-31
2023/06/21 15:49:31;;;;;;;3.10;2.00;;;;;;;21.61;59.21;96880.06;10355412;28;20038;-31
2023/06/21 15:54:31;;;;;;;2.57;2.10;;;;;;;21.81;60.08;96841.69;10343371;28;20026;-32
2023/06/21 15:59:32;;;;;;;2.83;1.80;;;;;;;21.98;59.43;96787.06;10365101;28;20121;-32
2023/06/21 16:04:32;;;;;;;1.80;1.60;;;;;;;21.89;59.50;96764.25;10369118;28;20038;-31
2023/06/21 16:09:32;;;;;;;2.13;1.58;;;;;;;21.80;58.94;96763.53;10328395;28;20110;-31
2023/06/21 16:14:33;;;;;;;1.93;1.53;;;;;;;21.71;58.59;96761.91;10332953;28;20030;-31
2023/06/21 16:19:33;;;;;;;2.20;2.00;;;;;;;21.68;59.03;96741.56;10361861;28;20804;-31
2023/06/21 16:24:34;;;;;;;3.85;1.70;;;;;;;21.67;59.27;96723.75;10360159;28;20498;-31
2023/06/21 16:29:34;;;;;;;3.28;2.05;;;;;;;21.68;59.46;96718.66;10340650;28;20061;-31
2023/06/21 16:34:34;;;;;;;3.83;1.73;;;;;;;21.68;59.60;96740.72;10327753;28;20042;-31
2023/06/21 16:39:35;;;;;;;3.07;2.27;;;;;;;21.68;59.71;96759.41;10354613;28;20037;-31
2023/06/21 16:44:35;;;;;;;11.50;2.53;;;;;;;21.92;62.25;96751.47;10356569;28;20034;-31
2023/06/21 16:49:35;;;;;;;4.72;2.13;;;;;;;21.98;60.71;96737.78;10334416;28;20034;-32
2023/06/21 16:54:36;;;;;;;3.47;2.30;;;;;;;21.86;59.69;96732.84;10355786;28;20479;-31
2023/06/21 16:59:36;;;;;;;17.20;2.47;;;;;;;21.77;60.15;96726.16;10376850;28;20688;-31
2023/06/21 17:04:37;;;;;;;2.83;1.53;;;;;;;21.72;59.49;96740.66;10356030;28;20435;-31
2023/06/21 17:09:37;;;;;;;4.30;1.83;;;;;;;21.70;59.75;96742.41;10371194;28;20857;-31
2023/06/21 17:14:37;;;;;;;2.40;2.03;;;;;;;21.67;59.63;96732.25;10363921;28;20041;-31
2023/06/21 17:19:38;;;;;;;2.93;1.87;;;;;;;21.67;59.84;96741.59;10360815;28;20405;-31
2023/06/21 17:24:42;;;;;;;5.23;2.43;;;;;;;21.64;59.65;96731.41;10367186;28;20558;-33
2023/06/21 17:29:42;;;;;;;5.63;2.08;;;;;;;21.78;61.47;96729.53;10340005;28;20693;-31
2023/06/21 17:34:43;;;;;;;5.77;2.53;;;;;;;22.00;62.56;96731.81;10350153;28;20030;-31
2023/06/21 17:39:43;;;;;;;6.32;2.28;;;;;;;21.91;61.46;96731.91;10369481;28;20096;-31
2023/06/21 17:44:44;;;;;;;3.40;2.03;;;;;;;21.84;60.63;96720.13;10376863;28;20038;-31
2023/06/21 17:49:44;;;;;;;5.30;2.27;;;;;;;21.81;60.21;96729.53;10355681;28;20030;-31
2023/06/21 17:54:45;;;;;;;3.03;1.90;;;;;;;21.76;59.41;96709.19;10379280;28;20125;-32
2023/06/21 17:59:46;;;;;;;2.15;1.92;;;;;;;21.74;58.98;96718.53;10380362;28;20573;-31
2023/06/21 18:04:46;;;;;;;4.60;2.00;;;;;;;21.72;59.07;96724.56;10371026;28;20036;-31
2023/06/21 18:09:47;;;;;;;6.15;2.40;;;;;;;21.71;59.97;96733.06;10388504;28;20029;-31
2023/06/21 18:14:47;;;;;;;6.07;2.03;;;;;;;21.76;59.99;96739.78;10361223;28;20092;-31
2023/06/21 18:19:48;;;;;;;3.53;1.73;;;;;;;21.96;60.92;96750.56;10386542;28;20052;-31
2023/06/21 18:24:48;;;;;;;1.67;1.57;;;;;;;22.06;60.04;96746.19;10382718;28;20418;-32
2023/06/21 18:29:48;;;;;;;2.23;1.43;;;;;;;21.92;58.72;96748.91;10377281;28;20029;-31
2023/06/21 18:34:49;;;;;;;1.13;1.03;;;;;;;21.85;58.72;96701.44;10352607;28;20095;-31
2023/06/21 18:39:49;;;;;;;4.70;1.40;;;;;;;21.84;58.86;96715.03;10341065;28;20034;-31
2023/06/21 18:44:49;;;;;;;1.93;1.67;;;;;;;21.83;59.94;96738.84;10336546;28;20061;-33
2023/06/21 18:49:50;;;;;;;2.95;1.95;;;;;;;21.81;59.04;96699.78;10339240;28;20331;-31
2023/06/21 18:54:50;;;;;;;1.63;1.50;;;;;;;21.81;59.33;96721.88;10333873;28;20418;-31
2023/06/21 18:59:50;;;;;;;1.60;1.50;;;;;;;21.79;58.91;96677.72;10326971;28;20524;-32
2023/06/21 19:04:52;;;;;;;3.70;1.83;;;;;;;21.88;60.66;96665.69;10347841;28;20042;-31
2023/06/21 19:09:53;;;;;;;5.90;2.33;;;;;;;22.08;62.89;96717.22;10347787;28;20041;-31
2023/06/21 19:14:53;;;;;;;3.30;1.67;;;;;;;21.99;59.84;96686.75;10295303;28;1038572;-31
2023/06/21 19:19:53;;;;;;;2.10;1.73;;;;;;;21.89;58.88;96672.47;10359189;28;20520;-31
2023/06/21 19:24:54;;;;;;;3.10;1.70;;;;;;;21.83;59.21;96672.56;10360116;28;20083;-31
2023/06/21 19:29:55;;;;;;;3.43;1.83;;;;;;;21.81;59.11;96661.53;10341008;28;20046;-31
2023/06/21 19:34:56;;;;;;;3.05;2.15;;;;;;;21.79;59.16;96667.50;10331807;28;20038;-31
2023/06/21 19:39:56;;;;;;;3.30;1.87;;;;;;;21.78;59.25;96687.06;10365338;28;20041;-32
2023/06/21 19:44:56;;;;;;;1.73;1.30;;;;;;;21.75;58.87;96679.47;10327673;28;20030;-31
2023/06/21 19:49:57;;;;;;;2.57;1.60;;;;;;;21.84;60.89;96675.94;10334292;28;20076;-32
2023/06/21 19:54:57;;;;;;;1.75;1.50;;;;;;;22.03;60.24;96678.22;10371937;28;20128;-32
2023/06/21 19:59:58;;;;;;;2.53;1.30;;;;;;;22.03;59.79;96679.91;10347133;28;20057;-31
2023/06/21 20:04:58;;;;;;;2.75;1.45;;;;;;;21.87;58.56;96694.59;10345884;28;20296;-30
2023/06/21 20:09:58;;;;;;;1.65;1.48;;;;;;;21.82;58.88;96680.22;10374635;28;20041;-31
2023/06/21 20:14:59;;;;;;;1.67;1.40;;;;;;;21.80;58.95;96680.25;10377145;28;20473;-31
2023/06/21 20:19:59;;;;;;;1.10;1.00;;;;;;;21.76;58.56;96668.41;10352045;28;20382;-32
2023/06/21 20:25:00;;;;;;;2.40;1.40;;;;;;;21.76;58.72;96665.88;10351012;28;20030;-33
2023/06/21 20:30:01;;;;;;;1.70;1.48;;;;;;;21.73;58.75;96671.00;10368076;28;20410;-31
2023/06/21 20:35:04;;;;;;;3.70;1.40;;;;;;;21.73;58.66;96655.69;10338679;28;20022;-31
2023/06/21 20:40:06;;;;;;;2.28;1.58;;;;;;;21.90;60.08;96643.56;10331832;28;20046;-35
2023/06/21 20:45:20;;;;;;;2.20;1.50;;;;;;;22.05;59.27;96638.25;10349447;28;20057;-32
2023/06/21 20:50:23;;;;;;;3.33;1.67;;;;;;;21.93;59.11;96637.59;10343097;28;20450;-31
2023/06/21 20:55:24;;;;;;;1.77;1.20;;;;;;;21.82;58.03;96632.63;10370254;28;20490;-31
2023/06/21 21:00:25;;;;;;;3.10;1.42;;;;;;;21.78;58.47;96623.38;10369015;28;20026;-31
2023/06/21 21:05:26;;;;;;;2.08;1.27;;;;;;;21.75;58.88;96623.41;10339891;28;20034;-31
2023/06/21 21:10:27;;;;;;;1.42;1.30;;;;;;;21.72;58.37;96623.44;10341465;28;20555;-31
2023/06/21 21:15:27;;;;;;;2.72;1.40;;;;;;;21.72;58.55;96631.09;10336392;28;20038;-32
2023/06/21 21:20:28;;;;;;;1.80;1.20;;;;;;;21.68;58.34;96632.00;10334203;28;20518;-31
2023/06/21 21:25:28;;;;;;;3.03;1.67;;;;;;;21.80;60.59;96621.63;10345081;28;20520;-31
2023/06/21 21:30:29;;;;;;;1.50;1.40;;;;;;;22.01;59.71;96613.66;10345753;28;20038;-32
2023/06/21 21:35:31;;;;;;;3.67;1.75;;;;;;;22.01;59.05;96605.16;10328578;28;20471;-31
2023/06/21 21:40:32;;;;;;;4.07;1.60;;;;;;;21.88;58.52;96614.72;10347670;28;20061;-31
2023/06/21 21:45:33;;;;;;;2.03;1.38;;;;;;;21.82;58.40;96619.06;10334163;28;20054;-31
2023/06/21 21:50:34;;;;;;;5.53;2.35;;;;;;;21.76;58.44;96619.16;10340507;28;20487;-31
2023/06/21 21:55:34;;;;;;;2.72;1.73;;;;;;;21.75;58.43;96635.31;10336997;28;20068;-34
2023/06/21 22:00:35;;;;;;;3.50;1.60;;;;;;;21.73;58.46;96644.69;10349637;28;20064;-31
2023/06/21 22:05:35;;;;;;;4.53;1.77;;;;;;;21.71;58.50;96644.69;10355567;28;20391;-31
2023/06/21 22:10:36;;;;;;;5.43;2.40;;;;;;;21.72;58.63;96643.81;10341062;28;20035;-31
2023/06/21 22:15:36;;;;;;;1.70;1.60;;;;;;;21.88;59.67;96650.41;10340691;28;20092;-31
2023/06/21 22:20:37;;;;;;;1.88;1.40;;;;;;;22.05;58.89;96650.16;10341133;28;20297;-33
2023/06/21 22:25:37;;;;;;;3.92;1.65;;;;;;;21.92;59.08;96664.78;10341779;28;20121;-31
2023/06/21 22:30:38;;;;;;;2.23;1.57;;;;;;;21.84;58.49;96664.06;10357683;28;20541;-31
2023/06/21 22:35:38;;;;;;;6.00;1.80;;;;;;;21.79;58.27;96650.53;10353562;28;20048;-31
2023/06/21 22:40:38;;;;;;;1.77;1.57;;;;;;;21.74;58.21;96642.09;10337358;28;20482;-32
2023/06/21 22:45:43;;;;;;;3.50;1.33;;;;;;;21.72;58.21;96645.56;10347254;28;20414;-32
2023/06/21 22:50:45;;;;;;;4.30;2.20;;;;;;;21.73;58.07;96635.31;10331678;28;20509;-31
2023/06/21 22:55:45;;;;;;;3.33;2.60;;;;;;;21.73;58.38;96630.22;10338879;28;20038;-31
2023/06/21 23:00:46;;;;;;;4.83;2.93;;;;;;;21.83;60.41;96631.78;10346037;28;20042;-32
2023/06/21 23:05:46;;;;;;;4.50;1.97;;;;;;;22.02;59.47;96622.16;10345019;28;20034;-31
2023/06/21 23:10:46;;;;;;;2.00;1.60;;;;;;;22.00;58.69;96626.44;10342754;28;20034;-31
2023/06/21 23:15:48;;;;;;;7.13;2.27;;;;;;;21.89;58.45;96636.78;10337943;28;20041;-30
2023/06/21 23:20:50;;;;;;;2.40;1.60;;;;;;;21.82;58.24;96619.88;10336303;28;20376;-32